createdAt,value
2019-01-24T00:02:23.119Z,166.63
2019-01-24T00:04:58.691Z,156.67
2019-01-24T00:07:32.165Z,155.17
2019-01-24T00:10:07.001Z,155.23
2019-01-24T00:12:40.579Z,166.17
2019-01-24T00:15:23.391Z,158.50
2019-01-24T00:17:57.883Z,152.93
2019-01-24T00:20:31.850Z,150.23
2019-01-24T00:23:05.288Z,154.10
2019-01-24T00:25:38.979Z,169.00
2019-01-24T00:28:13.508Z,150.23
2019-01-24T00:31:02.794Z,158.00
2019-01-24T00:33:38.302Z,156.80
2019-01-24T00:36:12.836Z,156.90
2019-01-24T00:38:56.938Z,155.13
2019-01-24T00:41:39.865Z,147.03
2019-01-24T00:44:13.002Z,158.33
2019-01-24T00:46:46.140Z,162.50
2019-01-24T00:49:29.543Z,156.23
2019-01-24T00:52:02.513Z,151.27
2019-01-24T00:54:35.995Z,171.53
2019-01-24T00:57:09.315Z,176.50
2019-01-24T00:59:51.831Z,164.37
2019-01-24T01:02:34.134Z,170.90
2019-01-24T01:05:08.531Z,174.23
2019-01-24T01:07:51.174Z,172.40
2019-01-24T01:10:46.555Z,180.07
2019-01-24T01:13:19.460Z,167.57
2019-01-24T01:15:53.626Z,166.93
2019-01-24T01:18:35.953Z,165.03
2019-01-24T01:21:11.171Z,175.17
2019-01-24T01:23:44.666Z,160.03
2019-01-24T01:26:18.096Z,178.30
2019-01-24T01:28:51.233Z,184.13
2019-01-24T01:31:24.958Z,162.33
2019-01-24T01:33:58.559Z,165.37
2019-01-24T01:36:32.486Z,163.40
2019-01-24T01:39:09.240Z,164.73
2019-01-24T01:41:42.576Z,156.03
2019-01-24T01:44:15.769Z,172.70
2019-01-24T01:46:58.072Z,165.63
2019-01-24T01:49:31.050Z,170.03
2019-01-24T01:52:04.246Z,165.80
2019-01-24T01:54:47.233Z,154.13
2019-01-24T01:57:29.638Z,165.83
2019-01-24T02:00:02.852Z,173.10
2019-01-24T02:02:46.100Z,147.97
2019-01-24T02:05:23.868Z,164.47
2019-01-24T02:07:57.475Z,167.33
2019-01-24T02:10:31.086Z,156.00
2019-01-24T02:13:04.952Z,150.47
2019-01-24T02:15:37.315Z,168.87
2019-01-24T02:18:11.186Z,151.17
2019-01-24T02:20:53.725Z,151.47
2019-01-24T02:23:27.282Z,149.27
2019-01-24T02:26:00.500Z,154.93
2019-01-24T02:28:34.327Z,160.27
2019-01-24T02:31:08.057Z,150.30
2019-01-24T02:33:41.751Z,142.30
2019-01-24T02:36:17.355Z,154.27
2019-01-24T02:38:59.327Z,153.93
2019-01-24T02:41:34.094Z,151.43
2019-01-24T02:44:07.214Z,138.50
2019-01-24T02:46:40.156Z,160.90
2019-01-24T02:49:14.635Z,146.70
2019-01-24T02:51:47.778Z,152.27
2019-01-24T02:54:22.152Z,154.73
2019-01-24T02:56:56.468Z,140.80
2019-01-24T02:59:31.005Z,145.70
2019-01-24T03:02:04.914Z,153.63
2019-01-24T03:04:38.059Z,146.53
2019-01-24T03:07:11.520Z,144.10
2019-01-24T03:10:03.327Z,127.47
2019-01-24T03:12:40.177Z,143.23
2019-01-24T03:15:15.031Z,129.43
2019-01-24T03:17:48.940Z,131.43
2019-01-24T03:20:22.395Z,124.37
2019-01-24T03:22:55.907Z,127.50
2019-01-24T03:25:29.279Z,126.43
2019-01-24T03:28:03.524Z,118.40
2019-01-24T03:30:41.263Z,106.70
2019-01-24T03:33:15.491Z,121.73
2019-01-24T03:35:48.825Z,107.20
2019-01-24T03:38:22.344Z,106.80
2019-01-24T03:40:56.853Z,106.13
2019-01-24T03:43:41.719Z,110.83
2019-01-24T03:46:14.867Z,106.27
2019-01-24T03:48:57.245Z,107.33
2019-01-24T03:51:30.811Z,107.07
2019-01-24T03:54:04.016Z,113.27
2019-01-24T03:56:37.415Z,103.27
2019-01-24T03:59:10.941Z,100.37
2019-01-24T04:01:46.018Z,101.30
2019-01-24T04:04:28.178Z,109.10
2019-01-24T04:07:01.793Z,94.63
2019-01-24T04:09:35.844Z,94.87
2019-01-24T04:12:18.150Z,94.87
2019-01-24T04:14:51.291Z,90.70
2019-01-24T04:17:25.909Z,90.07
2019-01-24T04:20:08.835Z,93.10
2019-01-24T04:22:56.912Z,83.13
2019-01-24T04:25:31.056Z,84.67
2019-01-24T04:28:19.429Z,80.83
2019-01-24T04:30:53.202Z,85.93
2019-01-24T04:33:35.718Z,86.03
2019-01-24T04:36:09.223Z,84.27
2019-01-24T04:38:42.840Z,78.60
2019-01-24T04:41:23.183Z,77.90
2019-01-24T04:44:09.672Z,77.17
2019-01-24T04:46:43.281Z,74.33
2019-01-24T04:49:16.804Z,71.80
2019-01-24T04:51:50.592Z,73.37
2019-01-24T04:54:23.983Z,77.07
2019-01-24T04:56:57.466Z,68.07
2019-01-24T04:59:31.021Z,73.07
2019-01-24T05:02:04.210Z,68.10
2019-01-24T05:04:46.091Z,70.90
2019-01-24T05:07:29.276Z,72.03
2019-01-24T05:10:02.760Z,66.27
2019-01-24T05:12:36.187Z,66.40
2019-01-24T05:15:09.922Z,70.47
2019-01-24T05:17:43.523Z,67.87
2019-01-24T05:20:17.364Z,67.77
2019-01-24T05:22:50.889Z,65.33
2019-01-24T05:25:23.596Z,61.00
2019-01-24T05:28:08.259Z,57.33
2019-01-24T05:30:41.723Z,63.93
2019-01-24T05:33:24.780Z,59.60
2019-01-24T05:35:59.110Z,62.83
2019-01-24T05:38:32.541Z,62.17
2019-01-24T05:41:06.971Z,59.23
2019-01-24T05:43:40.509Z,61.80
2019-01-24T05:46:14.348Z,63.57
2019-01-24T05:48:47.492Z,60.63
2019-01-24T05:51:21.341Z,64.40
2019-01-24T05:53:55.450Z,59.53
2019-01-24T05:56:39.605Z,59.67
2019-01-24T05:59:13.225Z,56.53
2019-01-24T06:01:47.179Z,64.03
2019-01-24T06:04:20.643Z,63.10
2019-01-24T06:06:53.759Z,59.03
2019-01-24T06:09:28.196Z,57.10
2019-01-24T06:12:11.143Z,62.50
2019-01-24T06:14:45.763Z,61.77
2019-01-24T06:17:19.979Z,63.57
2019-01-24T06:20:06.424Z,61.37
2019-01-24T06:22:39.574Z,66.30
2019-01-24T06:25:21.941Z,63.40
2019-01-24T06:27:55.250Z,66.70
2019-01-24T06:30:29.213Z,61.40
2019-01-24T06:33:04.165Z,65.17
2019-01-24T06:35:37.655Z,59.80
2019-01-24T06:38:20.486Z,58.13
2019-01-24T06:40:53.608Z,63.63
2019-01-24T06:43:27.890Z,68.57
2019-01-24T06:46:01.388Z,62.73
2019-01-24T06:48:34.546Z,64.20
2019-01-24T06:51:08.034Z,65.83
2019-01-24T06:53:42.039Z,59.00
2019-01-24T06:56:15.842Z,68.70
2019-01-24T06:58:49.295Z,64.97
2019-01-24T07:01:22.481Z,65.03
2019-01-24T07:03:56.081Z,63.73
2019-01-24T07:06:29.961Z,62.00
2019-01-24T07:09:02.538Z,61.60
2019-01-24T07:11:37.459Z,68.07
2019-01-24T07:14:21.277Z,70.47
2019-01-24T07:16:54.740Z,64.50
2019-01-24T07:19:28.338Z,71.10
2019-01-24T07:22:10.518Z,65.30
2019-01-24T07:24:43.982Z,66.57
2019-01-24T07:27:18.091Z,65.30
2019-01-24T07:29:51.229Z,60.90
2019-01-24T07:32:24.720Z,64.83
2019-01-24T07:34:58.260Z,64.10
2019-01-24T07:37:31.495Z,71.77
2019-01-24T07:40:15.199Z,61.67
2019-01-24T07:42:48.454Z,69.80
2019-01-24T07:45:28.073Z,69.10
2019-01-24T07:48:01.178Z,73.83
2019-01-24T07:50:43.632Z,69.13
2019-01-24T07:53:17.839Z,68.33
2019-01-24T07:56:00.952Z,69.40
2019-01-24T07:58:34.550Z,60.13
2019-01-24T08:01:08.416Z,67.60
2019-01-24T08:03:51.380Z,68.30
2019-01-24T08:06:33.700Z,76.93
2019-01-24T08:09:07.985Z,68.20
2019-01-24T08:11:39.447Z,75.27
2019-01-24T08:14:12.908Z,71.33
2019-01-24T08:16:46.262Z,67.70
2019-01-24T08:19:20.348Z,69.33
2019-01-24T08:21:53.473Z,72.60
2019-01-24T08:24:26.723Z,69.17
2019-01-24T08:27:00.246Z,68.50
2019-01-24T08:29:33.531Z,70.07
2019-01-24T08:32:16.010Z,63.37
2019-01-24T08:34:49.519Z,74.83
2019-01-24T08:37:22.953Z,69.80
2019-01-24T08:39:58.559Z,69.50
2019-01-24T08:42:31.808Z,72.33
2019-01-24T08:45:05.970Z,68.23
2019-01-24T08:47:48.711Z,78.47
2019-01-24T08:50:22.736Z,73.07
2019-01-24T08:52:55.871Z,62.37
2019-01-24T08:55:40.221Z,71.03
2019-01-24T08:58:14.129Z,75.20
2019-01-24T09:00:47.263Z,70.33
2019-01-24T09:03:29.662Z,65.90
2019-01-24T09:06:12.317Z,67.00
2019-01-24T09:08:45.129Z,66.27
2019-01-24T09:11:26.995Z,67.93
2019-01-24T09:14:00.135Z,64.60
2019-01-24T09:16:33.859Z,68.73
2019-01-24T09:19:07.415Z,70.90
2019-01-24T09:21:40.942Z,65.00
2019-01-24T09:24:24.892Z,65.77
2019-01-24T09:27:08.111Z,68.00
2019-01-24T09:29:41.987Z,69.83
2019-01-24T09:32:15.176Z,71.17
2019-01-24T09:34:48.684Z,68.37
2019-01-24T09:37:21.936Z,66.37
2019-01-24T09:39:55.774Z,66.43
2019-01-24T09:42:29.425Z,58.77
2019-01-24T09:45:03.297Z,68.07
2019-01-24T09:47:37.054Z,66.40
2019-01-24T09:50:13.199Z,60.37
2019-01-24T09:52:47.495Z,64.30
2019-01-24T09:55:21.123Z,63.53
2019-01-24T09:57:54.266Z,63.43
2019-01-24T10:00:29.840Z,61.27
2019-01-24T10:03:03.323Z,64.27
2019-01-24T10:05:37.261Z,64.23
2019-01-24T10:08:21.185Z,57.70
2019-01-24T10:11:03.307Z,59.17
2019-01-24T10:13:37.315Z,65.27
2019-01-24T10:16:10.556Z,64.40
2019-01-24T10:18:44.480Z,67.23
2019-01-24T10:21:17.599Z,61.27
2019-01-24T10:23:50.774Z,66.67
2019-01-24T10:26:24.173Z,58.07
2019-01-24T10:29:07.016Z,56.77
2019-01-24T10:31:40.476Z,57.20
2019-01-24T10:34:13.740Z,57.57
2019-01-24T10:36:47.148Z,59.60
2019-01-24T10:39:20.403Z,57.73
2019-01-24T10:42:02.247Z,56.03
2019-01-24T10:44:35.065Z,58.80
2019-01-24T10:47:18.009Z,61.50
2019-01-24T10:49:51.266Z,59.80
2019-01-24T10:52:24.355Z,61.10
2019-01-24T10:55:18.665Z,59.77
2019-01-24T10:57:53.711Z,56.10
2019-01-24T11:00:42.022Z,60.40
2019-01-24T11:03:16.919Z,59.77
2019-01-24T11:05:50.735Z,55.33
2019-01-24T11:08:24.717Z,59.53
2019-01-24T11:11:08.662Z,60.30
2019-01-24T11:13:41.833Z,50.40
2019-01-24T11:16:15.379Z,62.07
2019-01-24T11:18:48.599Z,55.40
2019-01-24T11:21:31.078Z,57.77
2019-01-24T11:24:04.809Z,58.50
2019-01-24T11:26:38.076Z,58.97
2019-01-24T11:29:11.508Z,57.90
2019-01-24T11:31:44.657Z,56.83
2019-01-24T11:34:18.759Z,54.53
2019-01-24T11:36:57.052Z,59.73
2019-01-24T11:39:27.418Z,52.60
2019-01-24T11:42:00.952Z,58.17
2019-01-24T11:44:34.521Z,61.93
2019-01-24T11:47:09.863Z,60.37
2019-01-24T11:49:43.004Z,56.83
2019-01-24T11:52:16.145Z,59.60
2019-01-24T11:54:58.443Z,68.33
2019-01-24T11:57:31.625Z,61.03
2019-01-24T12:00:06.363Z,59.43
2019-01-24T12:02:48.778Z,61.47
2019-01-24T12:05:21.935Z,58.07
2019-01-24T12:07:55.293Z,60.57
2019-01-24T12:10:28.823Z,58.87
2019-01-24T12:13:02.367Z,57.67
2019-01-24T12:15:35.920Z,61.47
2019-01-24T12:18:09.453Z,60.00
2019-01-24T12:20:51.358Z,62.07
2019-01-24T12:23:26.199Z,65.37
2019-01-24T12:25:59.670Z,56.90
2019-01-24T12:28:33.623Z,61.27
2019-01-24T12:31:06.987Z,56.23
2019-01-24T12:33:40.764Z,52.93
2019-01-24T12:36:13.907Z,60.83
2019-01-24T12:38:47.670Z,62.40
2019-01-24T12:41:20.780Z,62.40
2019-01-24T12:44:03.302Z,58.60
2019-01-24T12:46:36.585Z,54.73
2019-01-24T12:49:10.163Z,56.57
2019-01-24T12:51:44.042Z,58.03
2019-01-24T12:54:17.562Z,60.90
2019-01-24T12:57:02.172Z,56.60
2019-01-24T12:59:35.956Z,55.50
2019-01-24T13:02:10.401Z,54.67
2019-01-24T13:04:52.308Z,59.97
2019-01-24T13:07:26.154Z,59.40
2019-01-24T13:09:59.727Z,60.03
2019-01-24T13:12:34.128Z,56.03
2019-01-24T13:15:08.323Z,55.57
2019-01-24T13:17:41.728Z,55.70
2019-01-24T13:20:16.100Z,59.80
2019-01-24T13:22:50.526Z,59.93
2019-01-24T13:25:25.742Z,56.10
2019-01-24T13:28:08.693Z,55.07
2019-01-24T13:30:42.091Z,54.03
2019-01-24T13:33:15.347Z,49.03
2019-01-24T13:35:51.964Z,49.17
2019-01-24T13:38:26.085Z,54.57
2019-01-24T13:41:09.203Z,52.23
2019-01-24T13:43:42.927Z,57.67
2019-01-24T13:46:16.314Z,54.03
2019-01-24T13:48:49.681Z,51.90
2019-01-24T13:51:23.130Z,50.33
2019-01-24T13:53:56.570Z,46.20
2019-01-24T13:56:28.002Z,43.87
2019-01-24T13:59:01.593Z,48.93
2019-01-24T14:01:34.761Z,49.03
2019-01-24T14:04:35.166Z,45.90
2019-01-24T14:07:08.971Z,45.60
2019-01-24T14:09:42.120Z,44.60
2019-01-24T14:12:24.468Z,50.40
2019-01-24T14:14:57.617Z,40.57
2019-01-24T14:17:30.899Z,46.53
2019-01-24T14:20:05.288Z,47.47
2019-01-24T14:22:39.158Z,54.40
2019-01-24T14:25:21.489Z,51.43
2019-01-24T14:27:56.019Z,51.00
2019-01-24T14:30:29.131Z,52.87
2019-01-24T14:33:11.441Z,48.90
2019-01-24T14:35:47.697Z,52.20
2019-01-24T14:38:21.770Z,44.77
2019-01-24T14:40:55.204Z,46.13
2019-01-24T14:43:28.987Z,43.23
2019-01-24T14:46:02.113Z,46.60
2019-01-24T14:48:35.383Z,45.73
2019-01-24T14:51:17.636Z,46.27
2019-01-24T14:53:51.153Z,49.33
2019-01-24T14:56:34.254Z,42.73
2019-01-24T14:59:17.266Z,41.20
2019-01-24T15:01:59.965Z,39.60
2019-01-24T15:04:32.006Z,42.73
2019-01-24T15:07:06.352Z,40.10
2019-01-24T15:09:39.429Z,37.13
2019-01-24T15:12:12.852Z,39.03
2019-01-24T15:14:55.460Z,40.23
2019-01-24T15:17:29.220Z,41.90
2019-01-24T15:20:19.574Z,41.17
2019-01-24T15:22:52.734Z,41.33
2019-01-24T15:25:27.965Z,40.60
2019-01-24T15:28:01.732Z,41.93
2019-01-24T15:30:35.533Z,42.00
2019-01-24T15:33:08.992Z,41.27
2019-01-24T15:35:42.514Z,42.63
2019-01-24T15:38:16.353Z,41.60
2019-01-24T15:40:50.090Z,43.17
2019-01-24T15:43:22.899Z,47.07
2019-01-24T15:46:06.253Z,44.80
2019-01-24T15:48:48.711Z,48.63
2019-01-24T15:51:22.671Z,49.83
2019-01-24T15:53:56.523Z,44.00
2019-01-24T15:56:39.892Z,42.90
2019-01-24T15:59:12.719Z,44.13
2019-01-24T16:01:45.806Z,43.63
2019-01-24T16:04:28.429Z,47.20
2019-01-24T16:07:02.815Z,46.97
2019-01-24T16:09:36.563Z,44.90
2019-01-24T16:12:09.775Z,43.17
2019-01-24T16:14:43.024Z,39.17
2019-01-24T16:17:25.892Z,43.33
2019-01-24T16:20:17.548Z,42.00
2019-01-24T16:22:51.025Z,41.40
2019-01-24T16:25:28.149Z,40.60
2019-01-24T16:28:01.386Z,40.43
2019-01-24T16:30:35.593Z,38.40
2019-01-24T16:33:10.885Z,40.03
2019-01-24T16:35:46.552Z,44.57
2019-01-24T16:38:20.479Z,43.63
2019-01-24T16:40:54.665Z,42.77
2019-01-24T16:43:31.344Z,39.80
2019-01-24T16:46:06.156Z,46.63
2019-01-24T16:48:39.760Z,40.03
2019-01-24T16:51:13.967Z,41.57
2019-01-24T16:53:56.570Z,39.33
2019-01-24T16:56:29.735Z,42.50
2019-01-24T16:59:05.468Z,44.07
2019-01-24T17:01:38.583Z,41.90
2019-01-24T17:04:11.819Z,46.23
2019-01-24T17:06:45.967Z,41.63
2019-01-24T17:09:29.321Z,41.40
2019-01-24T17:12:12.661Z,45.43
2019-01-24T17:14:49.220Z,48.43
2019-01-24T17:17:23.425Z,47.27
2019-01-24T17:20:19.746Z,45.13
2019-01-24T17:22:53.987Z,43.53
2019-01-24T17:25:40.017Z,50.53
2019-01-24T17:28:12.869Z,52.07
2019-01-24T17:30:55.937Z,47.00
2019-01-24T17:33:29.211Z,48.67
2019-01-24T17:36:02.713Z,53.97
2019-01-24T17:38:37.098Z,48.10
2019-01-24T17:41:10.766Z,47.60
2019-01-24T17:43:49.305Z,48.50
2019-01-24T17:46:32.026Z,44.60
2019-01-24T17:49:05.318Z,45.77
2019-01-24T17:51:38.626Z,43.80
2019-01-24T17:54:11.483Z,42.67
2019-01-24T17:56:55.759Z,45.10
2019-01-24T17:59:29.271Z,49.73
2019-01-24T18:02:03.174Z,48.50
2019-01-24T18:04:36.700Z,47.93
2019-01-24T18:07:10.391Z,50.77
2019-01-24T18:09:43.518Z,52.30
2019-01-24T18:12:27.228Z,50.37
2019-01-24T18:15:13.508Z,44.43
2019-01-24T18:17:47.685Z,48.93
2019-01-24T18:20:22.130Z,48.30
2019-01-24T18:23:04.703Z,53.00
2019-01-24T18:25:47.946Z,45.33
2019-01-24T18:28:21.144Z,48.13
2019-01-24T18:30:54.587Z,48.87
2019-01-24T18:33:27.854Z,52.23
2019-01-24T18:36:02.096Z,48.17
2019-01-24T18:38:38.547Z,47.33
2019-01-24T18:41:10.247Z,47.60
2019-01-24T18:43:42.921Z,48.40
2019-01-24T18:46:16.476Z,47.77
2019-01-24T18:48:49.873Z,45.47
2019-01-24T18:51:25.116Z,42.70
2019-01-24T18:53:58.684Z,44.43
2019-01-24T18:56:32.216Z,46.77
2019-01-24T18:59:05.380Z,48.13
2019-01-24T19:01:47.232Z,44.30
2019-01-24T19:04:20.999Z,48.10
2019-01-24T19:06:54.135Z,44.63
2019-01-24T19:09:27.311Z,47.83
2019-01-24T19:12:09.936Z,50.77
2019-01-24T19:14:45.016Z,47.97
2019-01-24T19:17:18.583Z,47.23
2019-01-24T19:19:52.488Z,46.23
2019-01-24T19:22:25.731Z,47.70
2019-01-24T19:24:59.630Z,47.40
2019-01-24T19:27:32.698Z,49.30
2019-01-24T19:30:11.473Z,48.03
2019-01-24T19:32:44.838Z,53.27
2019-01-24T19:35:18.285Z,51.77
2019-01-24T19:37:51.746Z,50.50
2019-01-24T19:40:25.794Z,53.03
2019-01-24T19:42:58.928Z,49.67
2019-01-24T19:45:41.199Z,55.83
2019-01-24T19:48:15.396Z,51.37
2019-01-24T19:50:48.311Z,51.20
2019-01-24T19:53:33.479Z,54.80
2019-01-24T19:56:07.426Z,52.00
2019-01-24T19:58:50.174Z,50.20
2019-01-24T20:01:34.920Z,53.60
2019-01-24T20:04:08.460Z,54.53
2019-01-24T20:06:41.582Z,50.07
2019-01-24T20:09:14.748Z,52.33
2019-01-24T20:11:57.067Z,51.97
2019-01-24T20:14:31.394Z,50.23
2019-01-24T20:17:14.616Z,50.50
2019-01-24T20:19:48.768Z,46.60
2019-01-24T20:22:30.725Z,49.97
2019-01-24T20:25:04.634Z,45.57
2019-01-24T20:27:38.121Z,50.73
2019-01-24T20:30:17.093Z,49.30
2019-01-24T20:33:01.679Z,46.93
2019-01-24T20:35:45.192Z,47.33
2019-01-24T20:38:27.861Z,48.03
2019-01-24T20:41:01.326Z,51.77
2019-01-24T20:43:35.466Z,45.83
2019-01-24T20:46:18.767Z,44.30
2019-01-24T20:48:52.276Z,50.17
2019-01-24T20:51:26.091Z,47.93
2019-01-24T20:53:59.699Z,46.70
2019-01-24T20:56:35.279Z,53.17
2019-01-24T20:59:18.889Z,50.13
2019-01-24T21:01:52.415Z,48.60
2019-01-24T21:04:26.507Z,53.53
2019-01-24T21:07:00.268Z,49.43
2019-01-24T21:09:33.858Z,46.60
2019-01-24T21:12:07.870Z,50.37
2019-01-24T21:14:52.016Z,51.77
2019-01-24T21:17:25.666Z,47.20
2019-01-24T21:19:59.454Z,51.17
2019-01-24T21:22:34.698Z,49.83
2019-01-24T21:25:09.672Z,49.27
2019-01-24T21:27:45.003Z,51.27
2019-01-24T21:30:19.655Z,48.73
2019-01-24T21:32:53.916Z,47.47
2019-01-24T21:35:29.158Z,46.47
2019-01-24T21:38:02.744Z,49.93
2019-01-24T21:40:38.768Z,52.10
2019-01-24T21:43:23.359Z,50.07
2019-01-24T21:46:07.787Z,50.97
2019-01-24T21:49:01.399Z,51.83
2019-01-24T21:51:49.454Z,47.83
2019-01-24T21:54:22.760Z,51.73
2019-01-24T21:56:56.234Z,48.03
2019-01-24T21:59:32.154Z,49.70
2019-01-24T22:02:05.792Z,44.73
2019-01-24T22:04:39.861Z,49.83
2019-01-24T22:08:21.774Z,48.27
2019-01-24T22:11:12.806Z,48.60
2019-01-24T22:13:56.538Z,45.97
2019-01-24T22:16:30.671Z,44.97
2019-01-24T22:19:04.643Z,48.80
2019-01-24T22:21:46.742Z,54.70
2019-01-24T22:24:20.693Z,47.50
2019-01-24T22:26:54.889Z,49.10
2019-01-24T22:29:37.170Z,46.53
2019-01-24T22:32:09.483Z,47.87
2019-01-24T22:34:43.264Z,50.67
2019-01-24T22:37:16.043Z,48.33
2019-01-24T22:39:49.877Z,49.90
2019-01-24T22:42:23.534Z,50.00
2019-01-24T22:44:57.972Z,45.57
2019-01-24T22:47:31.172Z,47.17
2019-01-24T22:50:15.390Z,47.87
2019-01-24T22:52:50.515Z,52.27
2019-01-24T22:55:32.430Z,51.97
2019-01-24T22:58:07.175Z,49.33
2019-01-24T23:01:16.811Z,54.37
2019-01-24T23:03:57.322Z,49.37
2019-01-24T23:06:42.317Z,47.70
2019-01-24T23:09:16.538Z,51.43
2019-01-24T23:11:58.782Z,46.33
2019-01-24T23:14:32.489Z,48.93
2019-01-24T23:17:06.956Z,51.63
2019-01-24T23:19:40.870Z,46.57
2019-01-24T23:22:14.704Z,52.73
2019-01-24T23:24:48.087Z,50.23
2019-01-24T23:27:22.109Z,56.33
2019-01-24T23:29:55.956Z,47.43
2019-01-24T23:32:41.022Z,52.83
2019-01-24T23:35:16.511Z,51.77
2019-01-24T23:37:52.502Z,51.37
2019-01-24T23:40:24.985Z,49.53
2019-01-24T23:42:58.514Z,53.87
2019-01-24T23:45:32.083Z,51.43
2019-01-24T23:48:14.129Z,53.73
2019-01-24T23:50:56.881Z,48.10
2019-01-24T23:53:30.779Z,53.03
2019-01-24T23:56:04.308Z,49.50
2019-01-24T23:58:37.548Z,50.13
